createdAt,value
2019-02-19T00:00:26.052Z,19.65
2019-02-19T00:02:55.351Z,15.55
2019-02-19T00:05:23.142Z,14.95
2019-02-19T00:07:50.956Z,19.32
2019-02-19T00:10:18.684Z,16.65
2019-02-19T00:12:46.516Z,13.35
2019-02-19T00:15:14.255Z,14.80
2019-02-19T00:17:42.022Z,13.43
2019-02-19T00:20:10.072Z,14.10
2019-02-19T00:22:37.865Z,14.15
2019-02-19T00:25:05.599Z,15.72
2019-02-19T00:27:33.620Z,14.95
2019-02-19T00:30:01.344Z,13.30
2019-02-19T00:32:30.242Z,15.20
2019-02-19T00:34:57.973Z,13.93
2019-02-19T00:37:25.754Z,15.08
2019-02-19T00:39:53.541Z,13.18
2019-02-19T00:42:21.371Z,16.05
2019-02-19T00:44:49.524Z,14.20
2019-02-19T00:47:17.576Z,12.60
2019-02-19T00:49:45.278Z,19.15
2019-02-19T00:52:13.093Z,15.10
2019-02-19T00:54:40.790Z,11.40
2019-02-19T00:57:08.583Z,13.65
2019-02-19T00:59:36.329Z,12.90
2019-02-19T01:02:04.178Z,13.58
2019-02-19T01:04:32.122Z,15.58
2019-02-19T01:06:59.888Z,14.23
2019-02-19T01:09:27.827Z,14.38
2019-02-19T01:11:57.878Z,13.10
2019-02-19T01:14:25.701Z,16.35
2019-02-19T01:16:53.430Z,14.45
2019-02-19T01:19:21.287Z,13.50
2019-02-19T01:21:49.065Z,15.88
2019-02-19T01:24:16.854Z,13.72
2019-02-19T01:26:45.551Z,11.68
2019-02-19T01:29:13.324Z,12.85
2019-02-19T01:31:41.023Z,17.80
2019-02-19T01:34:08.842Z,15.10
2019-02-19T01:36:36.566Z,14.83
2019-02-19T01:39:05.010Z,17.37
2019-02-19T01:41:32.721Z,11.30
2019-02-19T01:44:00.544Z,13.18
2019-02-19T01:46:28.238Z,14.70
2019-02-19T01:48:56.131Z,12.73
2019-02-19T01:51:23.839Z,11.95
2019-02-19T01:53:51.733Z,12.35
2019-02-19T01:56:20.047Z,14.47
2019-02-19T01:58:47.878Z,19.75
2019-02-19T02:01:15.582Z,14.60
2019-02-19T02:03:43.277Z,13.30
2019-02-19T02:06:11.041Z,13.43
2019-02-19T02:08:38.810Z,13.18
2019-02-19T02:11:06.630Z,13.20
2019-02-19T02:13:34.318Z,13.25
2019-02-19T02:16:02.428Z,12.68
2019-02-19T02:18:30.144Z,13.40
2019-02-19T02:20:58.123Z,11.53
2019-02-19T02:23:25.861Z,12.53
2019-02-19T02:25:53.661Z,12.43
2019-02-19T02:28:21.454Z,16.70
2019-02-19T02:30:49.251Z,14.23
2019-02-19T02:33:17.001Z,10.48
2019-02-19T02:35:46.033Z,11.93
2019-02-19T02:38:13.819Z,13.93
2019-02-19T02:40:41.611Z,10.90
2019-02-19T02:43:09.441Z,14.30
2019-02-19T02:45:37.206Z,9.60
2019-02-19T02:48:04.917Z,9.70
2019-02-19T02:50:32.903Z,10.65
2019-02-19T02:53:00.662Z,9.90
2019-02-19T02:55:28.367Z,14.23
2019-02-19T02:57:56.087Z,14.13
2019-02-19T03:00:23.888Z,10.03
2019-02-19T03:02:51.791Z,10.53
2019-02-19T03:05:19.525Z,9.70
2019-02-19T03:07:50.311Z,9.20
2019-02-19T03:10:19.641Z,9.43
2019-02-19T03:12:47.446Z,8.53
2019-02-19T03:15:15.674Z,8.73
2019-02-19T03:17:43.559Z,8.28
2019-02-19T03:20:11.374Z,9.58
2019-02-19T03:22:39.132Z,11.63
2019-02-19T03:25:07.011Z,11.40
2019-02-19T03:27:34.848Z,10.82
2019-02-19T03:30:02.873Z,10.88
2019-02-19T03:32:32.348Z,15.40
2019-02-19T03:35:00.442Z,10.05
2019-02-19T03:37:28.373Z,9.55
2019-02-19T03:39:56.074Z,10.32
2019-02-19T03:42:23.924Z,10.32
2019-02-19T03:44:51.670Z,9.25
2019-02-19T03:47:19.421Z,11.10
2019-02-19T03:49:47.213Z,9.25
2019-02-19T03:52:15.016Z,10.25
2019-02-19T03:54:42.737Z,10.32
2019-02-19T03:57:10.778Z,10.60
2019-02-19T03:59:38.637Z,8.83
2019-02-19T04:02:06.344Z,11.38
2019-02-19T04:04:34.451Z,10.18
2019-02-19T04:07:02.182Z,10.15
2019-02-19T04:09:30.071Z,9.58
2019-02-19T04:11:57.805Z,10.58
2019-02-19T04:14:26.811Z,9.60
2019-02-19T04:16:54.872Z,11.25
2019-02-19T04:19:22.991Z,9.73
2019-02-19T04:21:50.802Z,14.83
2019-02-19T04:24:18.594Z,9.30
2019-02-19T04:26:46.286Z,10.38
2019-02-19T04:29:14.112Z,14.98
2019-02-19T04:31:42.143Z,11.75
2019-02-19T04:34:09.941Z,19.30
2019-02-19T04:36:37.651Z,9.43
2019-02-19T04:39:05.528Z,10.60
2019-02-19T04:41:33.372Z,10.30
2019-02-19T04:44:01.077Z,12.88
2019-02-19T04:46:31.736Z,9.45
2019-02-19T04:48:58.374Z,13.22
2019-02-19T04:51:26.247Z,8.15
2019-02-19T04:53:54.060Z,12.28
2019-02-19T04:56:21.867Z,6.40
2019-02-19T04:58:49.591Z,6.10
2019-02-19T05:01:17.481Z,6.53
2019-02-19T05:03:45.362Z,9.75
2019-02-19T05:06:13.151Z,7.85
2019-02-19T05:08:40.866Z,8.40
2019-02-19T05:11:08.746Z,8.88
2019-02-19T05:13:36.472Z,7.45
2019-02-19T05:16:04.299Z,8.83
2019-02-19T05:18:32.118Z,8.48
2019-02-19T05:20:59.932Z,12.70
2019-02-19T05:23:28.025Z,11.12
2019-02-19T05:25:55.735Z,10.20
2019-02-19T05:28:23.536Z,12.30
2019-02-19T05:30:51.158Z,9.28
2019-02-19T05:33:19.159Z,8.90
2019-02-19T05:35:46.913Z,9.55
2019-02-19T05:38:14.788Z,11.40
2019-02-19T05:40:42.631Z,5.67
2019-02-19T05:43:10.417Z,7.20
2019-02-19T05:45:38.150Z,6.72
2019-02-19T05:48:05.959Z,6.85
2019-02-19T05:50:35.314Z,6.30
2019-02-19T05:53:03.363Z,7.35
2019-02-19T05:55:31.330Z,9.00
2019-02-19T05:57:59.342Z,6.40
2019-02-19T06:00:27.186Z,6.60
2019-02-19T06:02:55.255Z,7.00
2019-02-19T06:05:23.221Z,7.12
2019-02-19T06:07:51.316Z,6.22
2019-02-19T06:10:19.208Z,6.65
2019-02-19T06:12:47.420Z,6.80
2019-02-19T06:15:17.278Z,6.95
2019-02-19T06:17:46.205Z,10.18
2019-02-19T06:20:18.319Z,7.28
2019-02-19T06:22:47.447Z,8.70
2019-02-19T06:25:16.367Z,8.35
2019-02-19T06:27:58.921Z,6.03
2019-02-19T06:30:50.707Z,6.47
2019-02-19T06:33:31.070Z,7.40
2019-02-19T06:40:23.515Z,6.83
2019-02-19T06:46:47.893Z,6.30
2019-02-19T06:49:15.636Z,7.17
2019-02-19T06:51:43.353Z,7.15
2019-02-19T06:54:11.118Z,14.28
2019-02-19T06:56:38.893Z,6.05
2019-02-19T06:59:06.645Z,6.72
2019-02-19T07:01:59.641Z,7.65
2019-02-19T07:04:32.750Z,6.92
2019-02-19T07:07:02.037Z,10.03
2019-02-19T07:09:29.798Z,8.05
2019-02-19T07:11:58.855Z,7.83
2019-02-19T07:14:26.765Z,9.80
2019-02-19T07:16:54.438Z,7.55
2019-02-19T07:19:22.250Z,5.97
2019-02-19T07:21:50.227Z,6.50
2019-02-19T07:24:17.952Z,7.20
2019-02-19T07:26:45.642Z,7.15
2019-02-19T07:29:15.069Z,6.87
2019-02-19T07:31:42.989Z,7.00
2019-02-19T07:34:10.654Z,7.62
2019-02-19T07:36:38.413Z,7.65
2019-02-19T07:39:06.261Z,7.67
2019-02-19T07:41:34.360Z,5.40
2019-02-19T07:44:02.170Z,6.65
2019-02-19T07:46:30.187Z,9.65
2019-02-19T07:48:57.973Z,7.28
2019-02-19T07:51:25.812Z,10.38
2019-02-19T07:53:53.503Z,8.13
2019-02-19T07:56:21.242Z,12.07
2019-02-19T07:58:49.040Z,7.53
2019-02-19T08:01:16.876Z,9.65
2019-02-19T08:03:44.680Z,9.20
2019-02-19T08:06:12.534Z,7.40
2019-02-19T08:08:41.174Z,10.08
2019-02-19T08:11:09.004Z,8.05
2019-02-19T08:13:36.721Z,6.78
2019-02-19T08:16:04.476Z,13.10
2019-02-19T08:18:32.147Z,9.78
2019-02-19T08:20:59.991Z,8.65
2019-02-19T08:23:29.892Z,7.78
2019-02-19T08:25:57.764Z,7.95
2019-02-19T08:28:25.625Z,7.45
2019-02-19T08:30:53.370Z,8.43
2019-02-19T08:33:21.156Z,7.25
2019-02-19T08:35:48.947Z,6.90
2019-02-19T08:38:16.681Z,7.40
2019-02-19T08:40:44.355Z,7.80
2019-02-19T08:43:12.195Z,6.00
2019-02-19T08:45:40.001Z,5.50
2019-02-19T08:48:07.866Z,6.37
2019-02-19T08:50:35.559Z,7.72
2019-02-19T08:53:03.403Z,5.75
2019-02-19T08:55:31.094Z,6.75
2019-02-19T08:57:58.910Z,6.33
2019-02-19T09:00:26.595Z,7.45
2019-02-19T09:02:54.693Z,6.00
2019-02-19T09:05:22.586Z,5.97
2019-02-19T09:07:50.427Z,9.18
2019-02-19T09:10:18.219Z,8.60
2019-02-19T09:12:46.065Z,6.53
2019-02-19T09:15:13.957Z,6.35
2019-02-19T09:17:41.821Z,5.75
2019-02-19T09:20:09.722Z,6.12
2019-02-19T09:22:37.462Z,6.00
2019-02-19T09:25:05.239Z,7.28
2019-02-19T09:27:33.963Z,8.30
2019-02-19T09:30:01.734Z,6.20
2019-02-19T09:32:31.117Z,6.45
2019-02-19T09:34:58.848Z,6.53
2019-02-19T09:37:26.593Z,6.22
2019-02-19T09:39:54.346Z,8.80
2019-02-19T09:42:22.037Z,6.50
2019-02-19T09:44:49.796Z,5.92
2019-02-19T09:47:17.617Z,5.87
2019-02-19T09:49:45.576Z,6.60
2019-02-19T09:52:13.442Z,7.72
2019-02-19T09:54:41.210Z,9.13
2019-02-19T09:57:08.810Z,7.30
2019-02-19T09:59:36.446Z,9.68
2019-02-19T10:02:04.114Z,6.58
2019-02-19T10:04:32.002Z,5.65
2019-02-19T10:06:59.700Z,5.83
2019-02-19T10:09:27.435Z,5.80
2019-02-19T10:11:55.219Z,6.30
2019-02-19T10:14:23.010Z,6.65
2019-02-19T10:16:50.676Z,7.10
2019-02-19T10:19:18.506Z,5.83
2019-02-19T10:21:46.292Z,7.03
2019-02-19T10:24:13.966Z,9.18
2019-02-19T10:26:41.650Z,6.85
2019-02-19T10:29:09.539Z,6.45
2019-02-19T10:31:37.400Z,8.50
2019-02-19T10:34:05.186Z,8.65
2019-02-19T10:36:32.948Z,7.10
2019-02-19T10:39:00.780Z,6.10
2019-02-19T10:41:28.550Z,6.28
2019-02-19T10:43:56.334Z,6.70
2019-02-19T10:46:24.190Z,6.50
2019-02-19T10:48:52.061Z,7.15
2019-02-19T10:51:19.927Z,9.13
2019-02-19T10:53:47.709Z,7.95
2019-02-19T10:56:15.483Z,7.60
2019-02-19T10:58:43.170Z,7.20
2019-02-19T11:01:11.134Z,7.70
2019-02-19T11:03:39.070Z,7.95
2019-02-19T11:06:06.828Z,9.20
2019-02-19T11:08:34.744Z,8.85
2019-02-19T11:11:02.494Z,8.33
2019-02-19T11:13:30.244Z,7.92
2019-02-19T11:15:58.103Z,7.60
2019-02-19T11:18:28.508Z,9.83
2019-02-19T11:20:55.338Z,7.72
2019-02-19T11:23:23.238Z,8.30
2019-02-19T11:25:50.938Z,10.25
2019-02-19T11:28:18.739Z,10.85
2019-02-19T11:30:46.637Z,11.12
2019-02-19T11:33:14.439Z,12.03
2019-02-19T11:35:42.205Z,11.90
2019-02-19T11:38:10.160Z,11.55
2019-02-19T11:40:37.931Z,11.43
2019-02-19T11:43:05.833Z,9.05
2019-02-19T11:45:33.582Z,10.15
2019-02-19T11:48:01.541Z,8.83
2019-02-19T11:50:29.348Z,6.37
2019-02-19T11:52:57.210Z,7.55
2019-02-19T11:55:24.994Z,6.40
2019-02-19T11:57:52.743Z,7.08
2019-02-19T12:00:24.526Z,7.95
2019-02-19T12:02:53.894Z,6.72
2019-02-19T12:05:21.611Z,9.95
2019-02-19T12:07:49.342Z,7.08
2019-02-19T12:10:17.096Z,9.50
2019-02-19T12:12:44.888Z,8.05
2019-02-19T12:15:12.914Z,8.80
2019-02-19T12:17:40.703Z,8.03
2019-02-19T12:20:08.811Z,8.03
2019-02-19T12:22:38.018Z,9.53
2019-02-19T12:25:06.067Z,7.72
2019-02-19T12:27:34.762Z,7.70
2019-02-19T12:30:02.947Z,10.08
2019-02-19T12:32:32.309Z,7.60
2019-02-19T12:35:00.037Z,8.13
2019-02-19T12:37:28.332Z,7.97
2019-02-19T12:39:56.098Z,7.53
2019-02-19T12:42:23.797Z,9.05
2019-02-19T12:44:51.574Z,8.50
2019-02-19T12:47:19.263Z,8.33
2019-02-19T12:49:47.216Z,9.20
2019-02-19T12:52:14.873Z,8.90
2019-02-19T12:54:42.739Z,11.05
2019-02-19T12:57:10.601Z,9.75
2019-02-19T12:59:38.294Z,11.85
2019-02-19T13:02:06.323Z,10.65
2019-02-19T13:04:34.115Z,9.83
2019-02-19T13:07:01.943Z,11.63
2019-02-19T13:09:29.655Z,10.15
2019-02-19T13:11:57.443Z,13.68
2019-02-19T13:14:25.307Z,11.80
2019-02-19T13:16:53.182Z,11.73
2019-02-19T13:19:20.962Z,10.80
2019-02-19T13:21:48.730Z,10.70
2019-02-19T13:24:16.532Z,12.53
2019-02-19T13:26:44.430Z,15.68
2019-02-19T13:29:12.215Z,23.55
2019-02-19T13:31:40.087Z,11.55
2019-02-19T13:34:07.876Z,13.90
2019-02-19T13:36:35.762Z,42.30
2019-02-19T13:39:04.709Z,29.98
2019-02-19T13:41:32.798Z,22.27
2019-02-19T13:44:00.745Z,18.17
2019-02-19T13:46:28.422Z,15.68
2019-02-19T13:48:56.170Z,11.05
2019-02-19T13:51:24.013Z,13.93
2019-02-19T13:53:59.512Z,15.48
2019-02-19T13:56:28.792Z,12.05
2019-02-19T13:58:56.578Z,16.30
2019-02-19T14:01:24.269Z,12.23
2019-02-19T14:03:52.156Z,14.85
2019-02-19T14:06:19.834Z,11.38
2019-02-19T14:08:47.594Z,11.28
2019-02-19T14:11:16.290Z,11.08
2019-02-19T14:13:51.664Z,11.45
2019-02-19T14:16:26.002Z,11.83
2019-02-19T14:19:02.541Z,11.45
2019-02-19T14:21:49.230Z,11.68
2019-02-19T14:24:41.153Z,10.98
2019-02-19T14:27:21.286Z,11.38
2019-02-19T14:30:09.174Z,14.50
2019-02-19T14:33:10.357Z,12.93
2019-02-19T14:36:15.691Z,10.80
2019-02-19T14:39:19.735Z,13.13
2019-02-19T14:42:07.558Z,11.88
2019-02-19T14:44:55.128Z,15.45
2019-02-19T14:47:35.521Z,12.05
2019-02-19T14:50:30.427Z,15.43
2019-02-19T14:53:18.196Z,11.60
2019-02-19T14:56:05.871Z,12.65
2019-02-19T14:58:59.964Z,12.10
2019-02-19T15:02:01.111Z,11.55
2019-02-19T15:04:56.446Z,11.33
2019-02-19T15:07:45.254Z,13.22
2019-02-19T15:10:32.601Z,11.88
2019-02-19T15:13:09.303Z,11.10
2019-02-19T15:15:58.283Z,12.50
2019-02-19T15:18:52.936Z,12.70
2019-02-19T15:21:41.905Z,13.58
2019-02-19T15:24:42.996Z,13.60
2019-02-19T15:27:44.046Z,14.85
2019-02-19T15:30:27.440Z,15.35
2019-02-19T15:33:06.794Z,13.40
2019-02-19T15:36:01.708Z,13.30
2019-02-19T15:38:50.516Z,17.67
2019-02-19T15:41:51.626Z,13.50
2019-02-19T15:44:40.422Z,13.40
2019-02-19T15:47:28.981Z,16.73
2019-02-19T15:50:09.313Z,12.35
2019-02-19T15:53:01.436Z,11.78
2019-02-19T15:56:17.201Z,13.25
2019-02-19T15:59:08.275Z,12.00
2019-02-19T16:02:00.038Z,12.37
2019-02-19T16:04:57.748Z,13.05
2019-02-19T16:07:36.039Z,12.05
2019-02-19T16:10:28.237Z,13.10
2019-02-19T16:13:15.314Z,17.37
2019-02-19T16:16:04.208Z,15.58
2019-02-19T16:18:57.962Z,14.75
2019-02-19T16:21:55.860Z,12.82
2019-02-19T16:24:32.803Z,17.60
2019-02-19T16:27:20.676Z,14.10
2019-02-19T16:30:05.854Z,13.70
2019-02-19T16:32:41.583Z,11.95
2019-02-19T16:35:36.564Z,18.45
2019-02-19T16:38:11.583Z,13.32
2019-02-19T16:40:58.488Z,19.05
2019-02-19T16:43:47.391Z,22.70
2019-02-19T16:46:45.304Z,13.08
2019-02-19T16:49:40.136Z,14.65
2019-02-19T16:52:19.539Z,14.10
2019-02-19T16:54:56.158Z,15.40
2019-02-19T16:57:31.117Z,14.20
2019-02-19T17:00:23.156Z,13.03
2019-02-19T17:03:24.270Z,14.93
2019-02-19T17:06:09.144Z,15.45
2019-02-19T17:08:56.528Z,12.13
2019-02-19T17:11:48.464Z,15.50
2019-02-19T17:14:33.156Z,14.98
2019-02-19T17:17:10.575Z,13.72
2019-02-19T17:19:56.217Z,13.15
2019-02-19T17:22:40.091Z,12.98
2019-02-19T17:25:43.809Z,13.25
2019-02-19T17:28:38.086Z,13.18
2019-02-19T17:31:29.594Z,14.43
2019-02-19T17:34:24.959Z,12.70
2019-02-19T17:37:06.414Z,13.45
2019-02-19T17:39:55.254Z,14.83
2019-02-19T17:42:42.564Z,11.83
2019-02-19T17:45:34.066Z,12.40
2019-02-19T17:48:20.432Z,11.97
2019-02-19T17:51:08.202Z,14.90
2019-02-19T17:54:02.873Z,14.05
2019-02-19T17:56:51.760Z,12.90
2019-02-19T17:59:33.094Z,16.02
2019-02-19T18:02:09.996Z,13.30
2019-02-19T18:04:51.483Z,11.53
2019-02-19T18:07:46.568Z,15.23
2019-02-19T18:10:27.822Z,11.33
2019-02-19T18:13:15.644Z,11.48
2019-02-19T18:16:07.498Z,11.78
2019-02-19T18:18:56.423Z,11.40
2019-02-19T18:21:24.251Z,13.20
2019-02-19T18:23:52.038Z,11.55
2019-02-19T18:26:19.794Z,11.80
2019-02-19T18:28:47.604Z,11.53
2019-02-19T18:31:15.445Z,10.45
2019-02-19T18:33:43.363Z,10.98
2019-02-19T18:36:11.742Z,9.55
2019-02-19T18:38:39.812Z,11.95
2019-02-19T18:41:07.697Z,10.45
2019-02-19T18:43:35.524Z,8.63
2019-02-19T18:46:06.290Z,10.23
2019-02-19T18:48:34.138Z,8.60
2019-02-19T18:51:01.969Z,7.58
2019-02-19T18:53:29.778Z,10.82
2019-02-19T18:55:57.636Z,8.43
2019-02-19T18:58:25.539Z,9.43
2019-02-19T19:00:53.251Z,8.53
2019-02-19T19:03:21.006Z,8.90
2019-02-19T19:05:48.961Z,9.28
2019-02-19T19:08:16.797Z,10.05
2019-02-19T19:10:44.580Z,9.03
2019-02-19T19:13:12.334Z,11.70
2019-02-19T19:15:40.262Z,13.03
2019-02-19T19:18:08.071Z,15.58
2019-02-19T19:20:35.982Z,13.50
2019-02-19T19:23:03.690Z,12.07
2019-02-19T19:25:31.463Z,12.90
2019-02-19T19:27:59.135Z,13.03
2019-02-19T19:30:26.887Z,14.05
2019-02-19T19:32:54.612Z,13.78
2019-02-19T19:35:22.446Z,13.22
2019-02-19T19:37:50.181Z,14.68
2019-02-19T19:40:17.964Z,14.45
2019-02-19T19:42:45.709Z,14.23
2019-02-19T19:45:13.512Z,12.85
2019-02-19T19:47:41.252Z,16.27
2019-02-19T19:50:09.043Z,15.65
2019-02-19T19:52:37.390Z,14.98
2019-02-19T19:55:05.514Z,14.80
2019-02-19T19:57:35.052Z,14.60
2019-02-19T20:00:52.821Z,14.85
2019-02-19T20:03:54.497Z,19.12
2019-02-19T20:06:22.417Z,14.68
2019-02-19T20:08:50.311Z,19.82
2019-02-19T20:11:18.174Z,14.65
2019-02-19T20:13:46.011Z,20.48
2019-02-19T20:16:13.891Z,15.32
2019-02-19T20:18:41.852Z,25.25
2019-02-19T20:21:09.881Z,17.52
2019-02-19T20:23:38.004Z,13.90
2019-02-19T20:26:05.962Z,13.72
2019-02-19T20:28:33.763Z,13.22
2019-02-19T20:31:01.596Z,13.55
2019-02-19T20:33:29.359Z,11.53
2019-02-19T20:35:57.124Z,12.98
2019-02-19T20:38:24.994Z,12.15
2019-02-19T20:40:52.783Z,12.10
2019-02-19T20:43:20.571Z,13.20
2019-02-19T20:45:48.364Z,12.98
2019-02-19T20:48:16.226Z,10.38
2019-02-19T20:50:44.051Z,10.13
2019-02-19T20:53:11.973Z,11.35
2019-02-19T20:55:39.912Z,10.82
2019-02-19T20:58:07.738Z,9.55
2019-02-19T21:00:35.611Z,10.43
2019-02-19T21:03:03.473Z,9.23
2019-02-19T21:05:31.298Z,10.93
2019-02-19T21:07:58.919Z,10.40
2019-02-19T21:10:26.602Z,9.95
2019-02-19T21:12:54.434Z,9.00
2019-02-19T21:15:22.266Z,9.83
2019-02-19T21:17:50.013Z,8.10
2019-02-19T21:20:17.965Z,7.75
2019-02-19T21:22:45.725Z,10.82
2019-02-19T21:25:13.650Z,8.03
2019-02-19T21:27:41.404Z,8.13
2019-02-19T21:30:09.954Z,9.20
2019-02-19T21:32:39.388Z,8.98
2019-02-19T21:35:07.353Z,9.18
2019-02-19T21:37:35.590Z,9.08
2019-02-19T21:40:03.983Z,8.50
2019-02-19T21:42:33.302Z,8.48
2019-02-19T21:45:01.161Z,8.30
2019-02-19T21:47:30.573Z,9.05
2019-02-19T21:49:58.389Z,8.55
2019-02-19T21:52:26.036Z,8.68
2019-02-19T21:54:53.904Z,8.10
2019-02-19T21:57:21.903Z,8.90
2019-02-19T21:59:49.711Z,8.33
2019-02-19T22:02:17.602Z,9.00
2019-02-19T22:04:45.339Z,9.10
2019-02-19T22:07:13.142Z,9.75
2019-02-19T22:09:40.969Z,10.18
2019-02-19T22:12:08.691Z,8.88
2019-02-19T22:14:36.517Z,9.38
2019-02-19T22:17:04.279Z,14.07
2019-02-19T22:19:32.252Z,9.88
2019-02-19T22:22:10.686Z,8.28
2019-02-19T22:24:39.581Z,8.93
2019-02-19T22:27:07.602Z,9.85
2019-02-19T22:29:35.412Z,10.32
2019-02-19T22:32:04.385Z,13.00
2019-02-19T22:34:32.247Z,10.00
2019-02-19T22:37:00.186Z,9.78
2019-02-19T22:39:28.103Z,10.13
2019-02-19T22:41:55.869Z,10.32
2019-02-19T22:44:23.679Z,9.85
2019-02-19T22:46:51.625Z,10.85
2019-02-19T22:49:19.322Z,12.15
2019-02-19T22:51:47.140Z,9.10
2019-02-19T22:54:43.407Z,10.88
2019-02-19T22:57:12.774Z,10.80
2019-02-19T22:59:40.495Z,10.28
2019-02-19T23:02:20.795Z,10.43
2019-02-19T23:04:48.649Z,10.38
2019-02-19T23:07:16.431Z,10.35
2019-02-19T23:09:44.294Z,9.85
2019-02-19T23:12:12.221Z,13.20
2019-02-19T23:14:40.028Z,12.43
2019-02-19T23:17:07.853Z,13.65
2019-02-19T23:19:35.637Z,13.48
2019-02-19T23:22:03.428Z,13.22
2019-02-19T23:24:31.280Z,12.80
2019-02-19T23:26:58.986Z,12.18
2019-02-19T23:29:26.942Z,13.98
2019-02-19T23:31:54.803Z,16.17
2019-02-19T23:34:22.545Z,14.90
2019-02-19T23:37:03.350Z,15.75
2019-02-19T23:39:31.822Z,16.93
2019-02-19T23:41:59.518Z,13.08
2019-02-19T23:44:27.385Z,17.50
2019-02-19T23:46:55.055Z,12.98
2019-02-19T23:49:22.901Z,14.25
2019-02-19T23:51:50.676Z,14.65
2019-02-19T23:54:18.522Z,14.13
2019-02-19T23:56:46.312Z,14.75
2019-02-19T23:59:14.161Z,13.55
